Time;durP1;ratioP1;P1;durP2;ratioP2;P2;SDS_P1;SDS_P2;PMS_P1;PMS_P2;Temp;Humidity;BMP_temperature;BMP_pressure;BME280_temperature;BME280_humidity;BME280_pressure;Samples;Min_cycle;Max_cycle;Signal;HPM_P1;HPM_P2
2021/03/09 00:01:56;;;;;;;117.03;43.67;;;;;;;3.18;39.36;95192.34;5092726;28;20661;-73
2021/03/09 00:04:23;;;;;;;120.80;45.90;;;;;;;3.10;39.50;95195.94;5101635;28;20202;-69
2021/03/09 00:06:50;;;;;;;116.63;45.20;;;;;;;3.22;39.38;95198.72;5093451;28;20716;-73
2021/03/09 00:09:16;;;;;;;112.00;43.10;;;;;;;3.18;39.25;95202.72;5100481;28;20237;-71
2021/03/09 00:11:42;;;;;;;117.13;46.55;;;;;;;3.14;38.96;95192.97;5095119;28;20213;-73
2021/03/09 00:14:09;;;;;;;115.65;45.28;;;;;;;3.10;39.49;95195.94;5100224;28;20219;-72
2021/03/09 00:16:35;;;;;;;129.10;51.45;;;;;;;2.95;39.99;95203.16;5095130;28;20668;-70
2021/03/09 00:19:02;;;;;;;159.38;57.88;;;;;;;2.97;39.98;95205.53;5098671;28;20262;-69
2021/03/09 00:21:29;;;;;;;192.88;67.45;;;;;;;2.89;40.20;95201.34;5095731;28;20206;-68
2021/03/09 00:23:55;;;;;;;232.40;87.38;;;;;;;2.87;39.92;95200.75;5097857;28;20198;-69
2021/03/09 00:26:21;;;;;;;209.52;80.85;;;;;;;3.00;39.76;95208.53;5097128;28;20191;-68
2021/03/09 00:28:48;;;;;;;190.68;69.93;;;;;;;2.87;39.15;95211.09;5096589;28;20696;-71
2021/03/09 00:31:14;;;;;;;128.80;53.40;;;;;;;2.48;40.30;95211.09;5097634;28;20611;-71
2021/03/09 00:33:41;;;;;;;169.23;68.38;;;;;;;2.48;40.09;95207.72;5095626;28;20219;-73
2021/03/09 00:36:07;;;;;;;135.27;55.20;;;;;;;2.40;40.30;95203.53;5098773;28;20195;-70
2021/03/09 00:38:34;;;;;;;114.15;46.10;;;;;;;2.40;39.74;95206.13;5094719;28;20199;-68
2021/03/09 00:41:02;;;;;;;104.65;44.65;;;;;;;2.47;39.83;95204.34;5101127;28;20203;-74
2021/03/09 00:43:28;;;;;;;99.78;43.97;;;;;;;2.66;39.43;95208.75;5095367;28;20596;-70
2021/03/09 00:45:55;;;;;;;94.93;42.63;;;;;;;2.80;38.70;95199.97;5101691;28;20199;-69
2021/03/09 00:48:21;;;;;;;89.47;40.20;;;;;;;2.74;39.02;95211.09;5094433;28;20211;-72
2021/03/09 00:50:48;;;;;;;102.55;43.63;;;;;;;2.56;39.50;95200.56;5100519;28;20213;-73
2021/03/09 00:53:14;;;;;;;90.63;42.72;;;;;;;2.76;39.64;95206.53;5094090;28;20190;-70
2021/03/09 00:55:41;;;;;;;94.10;43.42;;;;;;;2.81;39.58;95211.91;5100007;28;20206;-70
2021/03/09 00:58:07;;;;;;;97.20;42.47;;;;;;;2.74;40.13;95203.34;5092009;28;20580;-72
2021/03/09 01:00:33;;;;;;;93.63;41.63;;;;;;;2.87;40.23;95200.75;5100748;28;20256;-68
2021/03/09 01:03:00;;;;;;;90.47;43.10;;;;;;;2.88;41.09;95199.75;5093546;28;20191;-72
2021/03/09 01:05:26;;;;;;;91.85;41.08;;;;;;;2.82;40.83;95210.91;5099565;28;20234;-71
2021/03/09 01:07:53;;;;;;;89.10;40.90;;;;;;;2.67;41.06;95205.16;5092521;28;20197;-71
2021/03/09 01:10:21;;;;;;;91.55;40.78;;;;;;;2.73;41.52;95203.56;5100038;28;20192;-71
2021/03/09 01:12:47;;;;;;;94.55;42.85;;;;;;;2.70;41.40;95209.91;5092134;28;20281;-71
2021/03/09 01:15:14;;;;;;;88.85;41.95;;;;;;;2.59;41.16;95197.56;5100746;28;20203;-69
2021/03/09 01:17:41;;;;;;;94.15;41.00;;;;;;;2.75;40.92;95197.19;5090882;28;20286;-73
2021/03/09 01:20:09;;;;;;;93.93;42.97;;;;;;;2.63;41.34;95183.25;5100333;28;20282;-71
2021/03/09 01:22:35;;;;;;;103.82;45.50;;;;;;;2.58;41.08;95188.22;5090699;28;20205;-70
2021/03/09 01:25:03;;;;;;;95.15;43.80;;;;;;;2.71;40.70;95196.00;5101843;28;20228;-67
2021/03/09 01:27:30;;;;;;;99.43;39.88;;;;;;;2.76;40.86;95187.63;5090509;28;20287;-68
2021/03/09 01:29:56;;;;;;;78.25;36.08;;;;;;;2.55;41.22;95180.88;5089955;28;20561;-74
2021/03/09 01:32:23;;;;;;;84.05;36.65;;;;;;;2.62;41.06;95192.00;5090984;28;20230;-72
2021/03/09 01:34:50;;;;;;;76.03;35.40;;;;;;;2.23;40.99;95180.84;5089384;28;20192;-70
2021/03/09 01:37:17;;;;;;;75.07;35.10;;;;;;;2.04;41.16;95201.28;5090106;28;20195;-72
2021/03/09 01:39:44;;;;;;;70.85;32.88;;;;;;;2.10;40.97;95196.34;5089380;28;20195;-71
2021/03/09 01:42:10;;;;;;;66.57;27.80;;;;;;;2.30;41.07;95195.34;5090629;28;20271;-69
2021/03/09 01:44:37;;;;;;;52.58;26.13;;;;;;;2.35;40.79;95189.59;5089326;28;20214;-73
2021/03/09 01:47:04;;;;;;;54.35;25.77;;;;;;;2.39;40.44;95201.94;5090682;28;20193;-76
2021/03/09 01:49:34;;;;;;;50.40;24.77;;;;;;;2.28;41.28;95210.28;5089162;28;20244;-71
2021/03/09 01:52:04;;;;;;;54.63;26.58;;;;;;;2.32;41.68;95208.13;5090135;28;20187;-71
2021/03/09 01:54:31;;;;;;;61.67;29.27;;;;;;;2.24;42.71;95209.09;5088874;28;20203;-70
2021/03/09 01:56:57;;;;;;;63.03;29.40;;;;;;;2.26;42.70;95214.88;5090690;28;20259;-67
2021/03/09 01:59:25;;;;;;;74.53;34.65;;;;;;;2.36;41.76;95210.09;5090083;28;20202;-73
2021/03/09 02:01:52;;;;;;;85.28;38.55;;;;;;;2.19;42.18;95211.44;5090425;28;20278;-72
2021/03/09 02:04:19;;;;;;;84.50;39.92;;;;;;;2.29;42.13;95205.91;5089078;28;20278;-70
2021/03/09 02:09:33;;;;;;;88.80;42.35;;;;;;;2.32;41.29;95198.53;5088832;28;20248;-74
2021/03/09 02:12:32;;;;;;;86.75;40.78;;;;;;;2.53;41.59;95193.22;5090170;28;20195;-74
2021/03/09 02:15:27;;;;;;;90.18;40.47;;;;;;;2.48;41.33;95203.34;5088824;28;20206;-70
2021/03/09 02:18:45;;;;;;;83.35;37.47;;;;;;;2.32;41.82;95198.53;5091355;28;20199;-72
2021/03/09 02:21:30;;;;;;;80.35;37.28;;;;;;;2.30;41.88;95204.94;5098771;28;20576;-71
2021/03/09 02:24:08;;;;;;;80.03;39.55;;;;;;;2.32;41.99;95211.47;5103431;28;20209;-71
2021/03/09 02:26:48;;;;;;;81.22;39.35;;;;;;;2.26;42.46;95203.72;5093131;28;20253;-69
2021/03/09 02:29:39;;;;;;;83.68;39.92;;;;;;;2.17;42.61;95208.28;5090426;28;20698;-72
2021/03/09 02:32:13;;;;;;;98.63;46.42;;;;;;;2.22;42.55;95200.72;5089692;28;20591;-69
2021/03/09 02:34:46;;;;;;;112.50;50.72;;;;;;;2.23;42.17;95199.72;5100266;28;20223;-73
2021/03/09 02:37:15;;;;;;;114.57;50.47;;;;;;;2.16;41.96;95206.69;5090119;28;20221;-72
2021/03/09 02:39:44;;;;;;;109.10;50.33;;;;;;;1.73;42.72;95211.31;5100542;28;20190;-72
2021/03/09 02:42:16;;;;;;;112.72;49.90;;;;;;;1.60;43.49;95211.28;5090083;28;20657;-69
2021/03/09 02:44:44;;;;;;;110.40;47.40;;;;;;;1.78;43.60;95203.00;5100179;28;20291;-72
2021/03/09 02:47:14;;;;;;;108.30;48.17;;;;;;;1.94;43.27;95203.44;5089955;28;20198;-69
2021/03/09 02:49:43;;;;;;;98.28;47.20;;;;;;;1.97;43.76;95215.19;5100316;28;20754;-71
2021/03/09 02:52:18;;;;;;;103.65;49.50;;;;;;;1.86;43.46;95226.88;5089430;28;20230;-70
2021/03/09 02:54:48;;;;;;;112.18;49.58;;;;;;;1.97;43.28;95222.94;5100070;28;20216;-69
2021/03/09 02:57:16;;;;;;;110.97;51.28;;;;;;;2.08;42.47;95230.09;5089648;28;20202;-72
2021/03/09 02:59:44;;;;;;;97.90;46.90;;;;;;;2.07;42.49;95220.78;5100198;28;20202;-68
2021/03/09 03:02:12;;;;;;;101.07;47.70;;;;;;;2.12;42.17;95222.78;5089721;28;20203;-70
2021/03/09 03:04:44;;;;;;;109.25;48.67;;;;;;;2.13;42.83;95225.16;5099335;28;20198;-69
2021/03/09 03:07:12;;;;;;;97.32;46.28;;;;;;;2.06;43.40;95222.56;5089822;28;20202;-71
2021/03/09 03:09:40;;;;;;;106.30;48.22;;;;;;;2.04;43.17;95218.59;5100177;28;20210;-69
2021/03/09 03:12:10;;;;;;;108.80;48.45;;;;;;;2.01;43.34;95229.28;5089575;28;20267;-71
2021/03/09 03:14:37;;;;;;;112.63;51.00;;;;;;;2.10;43.52;95222.97;5099792;28;20190;-75
2021/03/09 03:17:05;;;;;;;130.82;58.10;;;;;;;1.92;44.35;95231.28;5089494;28;20282;-73
2021/03/09 03:19:47;;;;;;;133.93;57.28;;;;;;;1.94;44.20;95218.94;5099202;28;20206;-69
2021/03/09 03:22:16;;;;;;;146.60;61.88;;;;;;;1.99;44.01;95220.94;5093276;28;20555;-70
2021/03/09 03:24:42;;;;;;;146.05;63.75;;;;;;;1.84;44.45;95233.25;5104205;28;20588;-71
2021/03/09 03:27:09;;;;;;;155.98;67.57;;;;;;;1.89;44.17;95220.53;5093257;28;20206;-73
2021/03/09 03:29:35;;;;;;;167.45;71.18;;;;;;;1.83;44.61;95229.03;5104103;28;20223;-70
2021/03/09 03:32:02;;;;;;;178.25;71.72;;;;;;;1.72;45.14;95229.59;5093366;28;20199;-73
2021/03/09 03:34:29;;;;;;;161.43;69.80;;;;;;;1.71;44.52;95222.84;5103191;28;20201;-69
2021/03/09 03:36:55;;;;;;;137.35;59.97;;;;;;;1.66;45.04;95232.97;5093246;28;20207;-69
2021/03/09 03:39:22;;;;;;;142.70;60.92;;;;;;;1.82;44.70;95232.63;5101716;28;20236;-70
2021/03/09 03:41:48;;;;;;;132.27;56.78;;;;;;;1.68;44.71;95233.56;5094754;28;20304;-68
2021/03/09 03:44:14;;;;;;;129.98;54.05;;;;;;;1.63;44.99;95241.88;5100688;28;20190;-71
2021/03/09 03:46:41;;;;;;;129.77;56.15;;;;;;;1.73;45.00;95241.53;5095289;28;20617;-70
2021/03/09 03:49:09;;;;;;;130.85;56.80;;;;;;;1.67;45.00;95247.47;5100339;28;20224;-69
2021/03/09 03:51:41;;;;;;;119.55;53.55;;;;;;;1.78;44.38;95239.16;5096238;28;20695;-70
2021/03/09 03:54:30;;;;;;;130.30;54.53;;;;;;;1.80;45.49;95242.34;5100037;28;20235;-69
2021/03/09 03:57:22;;;;;;;125.43;52.20;;;;;;;1.88;45.64;95244.78;5093604;27;20657;-72
2021/03/09 03:59:52;;;;;;;118.57;49.45;;;;;;;1.98;45.49;95252.97;5107213;28;20222;-71
2021/03/09 04:02:19;;;;;;;119.68;53.75;;;;;;;1.86;44.75;95236.44;5093458;28;20191;-68
2021/03/09 04:04:49;;;;;;;121.25;57.22;;;;;;;1.62;45.24;95229.16;5103394;28;20210;-67
2021/03/09 04:07:22;;;;;;;142.05;63.90;;;;;;;1.80;44.99;95242.34;5092222;28;20218;-73
2021/03/09 04:09:52;;;;;;;143.75;64.18;;;;;;;1.88;44.71;95245.56;5103391;28;20229;-72
2021/03/09 04:12:21;;;;;;;150.10;65.43;;;;;;;1.92;44.80;95245.97;5092806;28;20200;-70
2021/03/09 04:14:49;;;;;;;146.45;65.68;;;;;;;1.82;45.56;95248.13;5103049;28;20232;-69
2021/03/09 04:17:17;;;;;;;136.43;61.80;;;;;;;1.77;45.66;95240.94;5092447;28;20191;-70
2021/03/09 04:19:45;;;;;;;135.50;61.70;;;;;;;1.79;45.68;95245.91;5103184;28;20195;-72
2021/03/09 04:22:14;;;;;;;135.27;63.55;;;;;;;1.66;45.23;95225.22;5090605;28;20226;-73
2021/03/09 04:24:43;;;;;;;136.40;63.67;;;;;;;1.90;45.64;95253.13;5102647;28;20213;-72
2021/03/09 04:27:20;;;;;;;126.50;58.85;;;;;;;1.87;45.86;95256.91;5091947;28;20211;-72
2021/03/09 04:29:52;;;;;;;131.90;60.15;;;;;;;1.68;46.31;95239.50;5102721;28;20218;-71
2021/03/09 04:32:20;;;;;;;124.40;58.85;;;;;;;1.92;46.20;95269.22;5090453;28;20194;-68
2021/03/09 04:34:47;;;;;;;131.43;60.10;;;;;;;1.95;46.14;95269.63;5090699;28;20641;-73
2021/03/09 04:37:35;;;;;;;138.68;60.95;;;;;;;1.78;46.16;95254.66;5090265;28;20660;-70
2021/03/09 04:40:03;;;;;;;127.13;56.30;;;;;;;1.55;47.71;95264.50;5095293;28;20202;-72
2021/03/09 04:42:30;;;;;;;127.03;54.58;;;;;;;1.63;47.15;95266.91;5098828;28;20199;-72
2021/03/09 04:44:56;;;;;;;115.97;53.13;;;;;;;1.65;47.21;95264.94;5100159;28;20195;-73
2021/03/09 04:47:24;;;;;;;107.65;50.67;;;;;;;1.71;46.80;95264.19;5103029;28;20237;-75
2021/03/09 04:49:55;;;;;;;107.25;49.63;;;;;;;1.73;47.08;95257.03;5100102;28;20707;-70
2021/03/09 04:52:23;;;;;;;91.10;45.63;;;;;;;1.68;47.01;95255.00;5112221;28;20205;-73
2021/03/09 04:54:54;;;;;;;94.25;48.22;;;;;;;1.58;47.14;95262.31;5103985;27;20591;-73
2021/03/09 04:57:35;;;;;;;104.40;50.00;;;;;;;1.44;46.70;95262.44;5091939;28;20199;-73
2021/03/09 05:00:05;;;;;;;110.15;51.95;;;;;;;1.52;47.25;95280.34;5097623;28;20283;-71
2021/03/09 05:02:31;;;;;;;107.78;54.92;;;;;;;1.51;47.34;95281.34;5091801;28;20210;-72
2021/03/09 05:04:58;;;;;;;98.35;48.50;;;;;;;1.16;47.81;95279.72;5098552;28;20307;-71
2021/03/09 05:07:24;;;;;;;90.05;44.60;;;;;;;1.21;47.53;95251.56;5093761;28;20195;-76
2021/03/09 05:09:51;;;;;;;83.07;44.50;;;;;;;1.52;46.67;95275.19;5107590;28;20228;-76
2021/03/09 05:12:17;;;;;;;84.55;43.05;;;;;;;1.56;46.62;95272.06;5113064;28;20210;-75
2021/03/09 05:14:44;;;;;;;84.30;41.90;;;;;;;1.73;46.36;95272.53;5113210;28;20207;-73
2021/03/09 05:17:11;;;;;;;76.50;40.00;;;;;;;1.79;46.17;95269.16;5111660;28;20195;-73
2021/03/09 05:19:38;;;;;;;82.65;40.00;;;;;;;1.85;46.26;95270.97;5111363;28;20174;-71
2021/03/09 05:22:05;;;;;;;79.93;40.20;;;;;;;1.78;49.81;95265.00;5092053;28;20268;-77
2021/03/09 05:24:32;;;;;;;78.93;41.45;;;;;;;1.75;47.67;95265.41;5100568;28;20658;-67
2021/03/09 05:26:59;;;;;;;84.60;41.35;;;;;;;1.69;47.46;95266.94;5110868;28;20190;-72
2021/03/09 05:29:25;;;;;;;87.40;44.75;;;;;;;1.77;47.17;95263.41;5099235;28;20230;-67
2021/03/09 05:31:51;;;;;;;93.30;45.55;;;;;;;1.86;47.04;95270.78;5103711;28;20211;-68
2021/03/09 05:34:18;;;;;;;93.30;47.20;;;;;;;1.93;46.69;95273.41;5080252;28;20187;-74
2021/03/09 05:36:44;;;;;;;102.75;49.05;;;;;;;2.02;46.77;95274.84;5078318;28;20191;-69
2021/03/09 05:39:11;;;;;;;110.18;52.72;;;;;;;2.08;46.96;95274.84;5097339;28;20201;-68
2021/03/09 05:41:38;;;;;;;105.38;54.00;;;;;;;2.15;47.13;95267.13;5101180;28;20213;-71
2021/03/09 05:44:06;;;;;;;125.15;58.72;;;;;;;2.28;46.53;95269.72;5098355;28;20194;-74
2021/03/09 05:46:33;;;;;;;121.20;58.97;;;;;;;2.26;47.00;95269.16;5110038;28;20585;-69
2021/03/09 05:49:00;;;;;;;102.07;50.45;;;;;;;2.23;47.10;95272.13;5109775;28;20212;-72
2021/03/09 05:51:44;;;;;;;117.45;58.13;;;;;;;2.45;48.51;95283.09;5110416;28;20190;-70
2021/03/09 05:54:10;;;;;;;112.22;49.85;;;;;;;2.57;46.93;95282.34;5110734;28;20255;-70
2021/03/09 05:56:36;;;;;;;101.00;48.45;;;;;;;2.58;46.46;95278.75;5110603;28;20190;-69
2021/03/09 05:59:03;;;;;;;102.47;47.30;;;;;;;2.71;45.82;95278.78;5110696;28;20190;-67
2021/03/09 06:01:31;;;;;;;92.80;45.67;;;;;;;2.62;45.58;95279.97;5110640;28;20588;-69
2021/03/09 06:03:59;;;;;;;89.30;46.33;;;;;;;2.66;45.51;95281.19;5105994;28;20187;-68
2021/03/09 06:06:25;;;;;;;98.30;47.03;;;;;;;2.56;46.23;95249.72;5092064;28;20296;-71
2021/03/09 06:08:52;;;;;;;97.55;46.08;;;;;;;2.65;46.09;95274.41;5106907;28;20215;-72
2021/03/09 06:11:19;;;;;;;96.97;47.28;;;;;;;2.80;45.62;95277.59;5108825;28;20190;-70
2021/03/09 06:13:47;;;;;;;112.68;52.85;;;;;;;2.86;45.51;95282.00;5107926;28;20187;-69
2021/03/09 06:16:14;;;;;;;113.65;59.58;;;;;;;2.87;45.74;95293.13;5107977;28;20609;-73
2021/03/09 06:18:54;;;;;;;121.90;58.38;;;;;;;2.85;46.03;95288.16;5108076;28;20648;-70
2021/03/09 06:21:21;;;;;;;123.07;59.47;;;;;;;2.98;45.49;95292.53;5102571;28;20651;-69
2021/03/09 06:23:47;;;;;;;111.55;57.65;;;;;;;3.03;45.45;95287.53;5106606;28;20190;-70
2021/03/09 06:26:43;;;;;;;106.85;54.30;;;;;;;3.23;45.26;95303.09;5107890;28;20203;-71
2021/03/09 06:29:14;;;;;;;111.30;59.85;;;;;;;3.30;44.92;95307.28;5089969;28;20567;-71
2021/03/09 06:31:59;;;;;;;107.95;57.83;;;;;;;3.34;44.55;95311.03;5089635;28;20672;-71
2021/03/09 06:34:31;;;;;;;124.65;63.10;;;;;;;3.28;44.95;95303.28;5108450;28;20605;-72
2021/03/09 06:37:12;;;;;;;113.05;58.45;;;;;;;3.37;44.88;95312.44;5109786;28;20279;-72
2021/03/09 06:39:55;;;;;;;99.47;50.03;;;;;;;3.36;44.79;95310.88;5109122;28;20198;-70
2021/03/09 06:42:25;;;;;;;101.53;50.97;;;;;;;3.32;44.66;95312.25;5110222;28;20221;-74
2021/03/09 06:45:16;;;;;;;110.45;55.72;;;;;;;3.27;45.03;95312.03;5104421;28;20656;-70
2021/03/09 06:47:49;;;;;;;106.00;51.08;;;;;;;3.16;45.53;95316.03;5093693;28;20668;-73
2021/03/09 06:50:19;;;;;;;93.22;47.20;;;;;;;3.04;45.14;95317.63;5089325;28;20326;-73
2021/03/09 06:52:58;;;;;;;102.00;51.22;;;;;;;3.22;45.16;95315.25;5089636;28;20562;-71
2021/03/09 06:55:33;;;;;;;106.95;50.78;;;;;;;3.46;45.16;95319.00;5090900;28;20269;-72
2021/03/09 06:58:05;;;;;;;87.97;46.25;;;;;;;3.73;44.33;95310.19;5094307;28;20191;-71
2021/03/09 07:00:32;;;;;;;86.28;42.22;;;;;;;3.97;44.47;95312.13;5093979;28;20741;-72
2021/03/09 07:02:59;;;;;;;77.93;41.38;;;;;;;4.05;43.65;95319.69;5093892;28;20205;-72
2021/03/09 07:05:25;;;;;;;86.60;42.17;;;;;;;4.07;43.71;95312.47;5093132;28;20613;-70
2021/03/09 07:07:52;;;;;;;86.95;43.70;;;;;;;4.10;42.39;95312.09;5093797;28;20656;-74
2021/03/09 07:10:20;;;;;;;77.90;42.53;;;;;;;4.16;41.91;95316.44;5093584;28;20292;-71
2021/03/09 07:12:51;;;;;;;84.45;44.15;;;;;;;4.18;42.67;95309.25;5092812;28;20203;-73
2021/03/09 07:15:19;;;;;;;104.80;49.95;;;;;;;4.27;42.98;95318.41;5093923;28;20290;-69
2021/03/09 07:17:50;;;;;;;90.13;47.42;;;;;;;4.51;44.71;95322.88;5093466;28;20203;-70
2021/03/09 07:20:18;;;;;;;95.30;48.05;;;;;;;4.55;43.63;95329.25;5092886;28;20611;-68
2021/03/09 07:22:54;;;;;;;96.30;48.33;;;;;;;4.61;42.93;95328.44;5093487;28;20198;-69
2021/03/09 07:25:22;;;;;;;93.05;46.58;;;;;;;4.61;42.45;95330.22;5092631;28;20183;-69
2021/03/09 07:28:01;;;;;;;93.60;46.10;;;;;;;4.77;42.14;95325.34;5093286;28;20191;-70
2021/03/09 07:30:30;;;;;;;87.15;47.45;;;;;;;4.93;41.84;95324.03;5093129;28;20223;-71
2021/03/09 07:32:58;;;;;;;93.97;48.50;;;;;;;5.08;41.38;95325.34;5093379;28;20265;-72
2021/03/09 07:35:27;;;;;;;96.57;45.95;;;;;;;5.15;41.65;95326.09;5092501;28;20218;-69
2021/03/09 07:37:56;;;;;;;87.20;44.72;;;;;;;5.20;41.35;95314.28;5093241;28;20186;-70
2021/03/09 07:40:24;;;;;;;88.00;42.22;;;;;;;5.23;41.77;95321.63;5092397;28;20222;-69
2021/03/09 07:42:50;;;;;;;87.38;43.15;;;;;;;5.48;42.04;95312.03;5092827;28;20589;-69
2021/03/09 07:45:20;;;;;;;79.53;41.97;;;;;;;5.73;40.96;95315.41;5092592;28;20278;-67
2021/03/09 07:47:50;;;;;;;76.43;41.15;;;;;;;5.62;39.65;95323.91;5093269;28;20214;-69
2021/03/09 07:50:18;;;;;;;83.68;42.22;;;;;;;5.39;39.63;95323.69;5092252;28;20218;-69
2021/03/09 07:52:59;;;;;;;74.93;40.78;;;;;;;5.18;40.17;95316.28;5093086;28;20614;-70
2021/03/09 07:55:29;;;;;;;79.45;40.75;;;;;;;5.49;40.74;95304.00;5092382;28;20658;-73
2021/03/09 07:58:25;;;;;;;74.78;39.40;;;;;;;5.74;40.08;95301.38;5092901;28;20271;-68
2021/03/09 08:01:00;;;;;;;63.45;37.45;;;;;;;5.86;39.80;95295.28;5079394;28;20728;-69
2021/03/09 08:03:31;;;;;;;65.45;35.67;;;;;;;5.94;39.66;95297.59;5093130;28;20260;-69
2021/03/09 08:06:00;;;;;;;68.70;36.60;;;;;;;5.91;39.33;95289.44;5091746;28;20215;-71
2021/03/09 08:08:49;;;;;;;67.15;37.78;;;;;;;5.96;39.60;95293.00;5093103;28;20179;-68
2021/03/09 08:11:27;;;;;;;68.35;36.83;;;;;;;6.11;39.09;95290.03;5106373;28;20197;-68
2021/03/09 08:14:08;;;;;;;67.05;37.17;;;;;;;6.29;38.82;95287.41;5111267;28;20251;-67
2021/03/09 08:16:42;;;;;;;68.90;36.35;;;;;;;6.44;41.33;95281.81;5109080;28;20190;-68
2021/03/09 08:19:28;;;;;;;66.75;36.95;;;;;;;6.58;39.23;95278.81;5112307;28;20368;-70
2021/03/09 08:21:56;;;;;;;65.68;35.35;;;;;;;6.76;38.16;95280.56;5112528;28;20285;-70
2021/03/09 08:24:41;;;;;;;63.95;34.88;;;;;;;6.89;38.03;95275.16;5113523;28;20193;-69
2021/03/09 08:27:27;;;;;;;73.57;34.92;;;;;;;7.02;37.29;95270.56;5112951;28;20317;-68
2021/03/09 08:29:54;;;;;;;60.33;34.00;;;;;;;7.14;37.66;95273.97;5112494;28;20244;-69
2021/03/09 08:32:24;;;;;;;56.60;32.60;;;;;;;7.30;37.32;95276.94;5112569;28;20186;-67
2021/03/09 08:34:51;;;;;;;55.10;31.23;;;;;;;7.30;37.08;95271.72;5111947;28;20490;-71
2021/03/09 08:37:31;;;;;;;68.63;43.10;;;;;;;7.33;38.01;95266.84;5112172;28;20285;-69
2021/03/09 08:40:08;;;;;;;61.63;32.43;;;;;;;7.29;37.85;95264.91;5110637;28;20447;-68
2021/03/09 08:43:02;;;;;;;61.67;33.17;;;;;;;7.62;36.46;95265.16;5106677;28;20452;-69
2021/03/09 08:45:40;;;;;;;71.23;35.60;;;;;;;7.62;35.92;95265.16;5110115;28;20436;-69
2021/03/09 08:48:09;;;;;;;57.87;34.13;;;;;;;7.68;35.99;95259.03;5107922;28;20440;-68
2021/03/09 08:50:46;;;;;;;48.00;29.37;;;;;;;7.80;35.56;95267.63;5108329;28;20463;-68
2021/03/09 08:53:33;;;;;;;50.03;27.80;;;;;;;7.89;35.58;95266.25;5106177;28;20440;-66
2021/03/09 08:56:01;;;;;;;49.23;28.90;;;;;;;7.90;35.73;95275.69;5108456;28;20553;-69
2021/03/09 08:58:29;;;;;;;54.73;33.23;;;;;;;7.79;36.05;95266.81;5109955;28;20448;-69
2021/03/09 09:00:56;;;;;;;61.57;35.97;;;;;;;7.94;35.21;95268.97;5109599;28;20428;-67
2021/03/09 09:03:39;;;;;;;57.17;33.23;;;;;;;7.93;35.44;95268.19;5103651;27;20539;-65
2021/03/09 09:06:06;;;;;;;57.23;33.20;;;;;;;7.92;35.08;95274.41;5108867;28;20480;-68
2021/03/09 09:08:34;;;;;;;62.27;33.70;;;;;;;7.95;34.68;95265.34;5108237;28;20892;-65
2021/03/09 09:11:01;;;;;;;64.30;35.67;;;;;;;7.97;35.09;95252.88;5105314;28;20463;-67
2021/03/09 09:13:30;;;;;;;67.20;37.30;;;;;;;7.84;35.37;95263.53;5105211;28;20444;-68
2021/03/09 09:15:56;;;;;;;60.77;36.30;;;;;;;7.64;35.71;95268.31;5105988;28;20462;-66
2021/03/09 09:18:23;;;;;;;61.00;35.23;;;;;;;7.66;35.96;95261.88;5104106;28;20448;-66
2021/03/09 09:20:51;;;;;;;60.93;35.60;;;;;;;7.79;35.81;95271.28;5105639;28;20444;-66
2021/03/09 09:23:19;;;;;;;62.10;33.73;;;;;;;7.90;35.27;95257.41;5104882;28;20452;-67
2021/03/09 09:25:47;;;;;;;62.60;34.60;;;;;;;7.93;35.18;95256.94;5107260;28;20456;-66
2021/03/09 09:28:34;;;;;;;54.50;31.27;;;;;;;7.93;35.12;95270.00;5105809;28;20460;-69
2021/03/09 09:31:12;;;;;;;59.37;33.40;;;;;;;8.02;35.71;95256.38;5104844;28;20988;-66
2021/03/09 09:33:50;;;;;;;57.83;32.27;;;;;;;7.98;35.56;95249.22;5108719;28;20448;-67
2021/03/09 09:36:21;;;;;;;57.50;32.27;;;;;;;8.10;34.90;95252.63;5109463;27;20445;-69
2021/03/09 09:38:55;;;;;;;63.27;33.87;;;;;;;8.22;35.29;95255.97;5109903;28;20459;-67
2021/03/09 09:41:25;;;;;;;60.37;31.43;;;;;;;8.32;34.83;95255.41;5097708;28;21218;-70
2021/03/09 09:43:53;;;;;;;64.70;32.33;;;;;;;8.43;34.48;95244.91;5104360;28;20440;-66
2021/03/09 09:46:26;;;;;;;61.13;31.40;;;;;;;8.46;34.98;95256.72;5105741;28;20459;-69
2021/03/09 09:48:54;;;;;;;52.60;30.83;;;;;;;7.89;33.95;95250.59;5106290;28;20468;-69
2021/03/09 09:51:22;;;;;;;49.27;28.57;;;;;;;7.68;34.50;95238.94;5109065;28;20969;-68
2021/03/09 09:53:51;;;;;;;48.87;29.43;;;;;;;7.85;34.60;95249.47;5108263;28;20440;-70
2021/03/09 09:56:17;;;;;;;51.57;30.00;;;;;;;7.97;35.03;95250.25;5107080;28;20800;-66
2021/03/09 09:58:51;;;;;;;35.70;20.93;;;;;;;8.13;33.95;95242.50;5109635;28;20501;-69
2021/03/09 10:01:19;;;;;;;38.60;22.87;;;;;;;8.18;34.00;95239.19;5108997;28;20451;-69
2021/03/09 10:03:56;;;;;;;43.87;27.03;;;;;;;8.22;34.58;95242.91;5106790;28;20481;-69
2021/03/09 10:06:26;;;;;;;41.20;24.50;;;;;;;8.26;33.25;95244.09;5106084;28;20566;-69
2021/03/09 10:08:53;;;;;;;45.13;23.73;;;;;;;8.27;33.57;95243.03;5109566;28;20432;-69
2021/03/09 10:11:21;;;;;;;38.13;23.30;;;;;;;8.44;33.28;95238.69;5109163;28;20425;-69
2021/03/09 10:13:47;;;;;;;43.17;24.13;;;;;;;8.55;33.31;95226.59;5109287;28;20497;-69
2021/03/09 10:16:14;;;;;;;39.90;24.37;;;;;;;8.59;33.59;95225.09;5109284;28;20442;-67
2021/03/09 10:18:41;;;;;;;46.07;25.93;;;;;;;8.61;33.77;95223.81;5109516;28;20945;-69
2021/03/09 10:21:15;;;;;;;44.43;25.80;;;;;;;8.75;38.27;95224.34;5109714;28;20463;-66
2021/03/09 10:23:51;;;;;;;44.33;25.87;;;;;;;8.92;37.47;95220.69;5109691;28;20432;-68
2021/03/09 10:26:26;;;;;;;39.57;25.37;;;;;;;8.91;33.80;95221.75;5109445;28;21026;-68
2021/03/09 10:29:02;;;;;;;38.80;24.30;;;;;;;9.02;33.40;95210.41;5108897;28;20432;-66
2021/03/09 10:31:46;;;;;;;40.90;23.23;;;;;;;8.95;33.30;95212.41;5107929;28;20432;-68
2021/03/09 10:34:15;;;;;;;38.33;20.40;;;;;;;9.00;32.31;95202.03;5105935;28;20611;-71
2021/03/09 10:37:02;;;;;;;30.07;20.23;;;;;;;9.03;32.12;95206.75;5109122;28;20440;-70
2021/03/09 10:39:31;;;;;;;45.63;22.03;;;;;;;8.73;31.54;95205.47;5106743;28;20887;-68
2021/03/09 10:42:29;;;;;;;45.00;28.33;;;;;;;8.82;32.61;95210.09;5109222;28;20428;-69
2021/03/09 10:44:59;;;;;;;49.87;29.80;;;;;;;9.07;32.88;95201.84;5107557;28;20464;-70
2021/03/09 10:47:26;;;;;;;39.97;24.93;;;;;;;9.06;32.28;95195.84;5106374;28;20953;-68
2021/03/09 10:49:53;;;;;;;36.00;23.13;;;;;;;9.32;32.38;95191.00;5108445;28;20467;-68
2021/03/09 10:52:19;;;;;;;39.23;22.83;;;;;;;9.49;32.65;95191.75;5108407;28;20848;-68
2021/03/09 10:54:58;;;;;;;44.80;25.67;;;;;;;9.65;31.20;95188.31;5107552;28;20505;-67
2021/03/09 10:57:25;;;;;;;40.00;21.93;;;;;;;9.52;31.96;95188.66;5105951;28;20479;-66
2021/03/09 10:59:51;;;;;;;38.73;22.03;;;;;;;9.34;31.78;95184.50;5108260;28;20443;-68
2021/03/09 11:02:18;;;;;;;31.13;20.73;;;;;;;9.39;34.68;95184.56;5108862;28;20436;-67
2021/03/09 11:04:44;;;;;;;32.63;20.10;;;;;;;9.43;34.19;95184.88;5108408;28;20440;-68
2021/03/09 11:07:11;;;;;;;33.13;19.33;;;;;;;9.47;31.75;95184.13;5109084;28;20447;-69
2021/03/09 11:09:38;;;;;;;31.47;19.30;;;;;;;9.37;30.81;95178.78;5106760;28;20524;-72
2021/03/09 11:12:05;;;;;;;32.93;20.03;;;;;;;9.59;31.47;95163.91;5103768;28;20437;-71
2021/03/09 11:14:31;;;;;;;51.37;35.97;;;;;;;9.70;31.57;95170.06;5108337;28;20428;-71
2021/03/09 11:16:58;;;;;;;64.83;43.23;;;;;;;9.66;33.11;95145.41;5108311;28;20520;-71
2021/03/09 11:19:24;;;;;;;30.03;18.30;;;;;;;10.07;31.94;95165.81;5107733;28;20861;-69
2021/03/09 11:21:51;;;;;;;31.13;18.37;;;;;;;9.99;31.26;95164.41;5109278;28;20424;-70
2021/03/09 11:24:17;;;;;;;27.23;17.87;;;;;;;9.93;31.68;95172.41;5107785;28;20436;-70
2021/03/09 11:26:45;;;;;;;34.20;18.33;;;;;;;9.73;30.41;95165.13;5108534;28;20438;-69
2021/03/09 11:29:11;;;;;;;33.20;19.93;;;;;;;9.73;31.39;95161.72;5108172;28;20555;-69
2021/03/09 11:31:38;;;;;;;31.63;18.83;;;;;;;9.66;29.86;95153.25;5108133;28;20470;-68
2021/03/09 11:34:04;;;;;;;36.53;24.63;;;;;;;9.57;30.74;95154.72;5108894;28;20441;-72
2021/03/09 11:36:31;;;;;;;81.73;56.63;;;;;;;9.49;29.14;95142.84;5108337;28;20558;-74
2021/03/09 11:38:58;;;;;;;29.53;17.87;;;;;;;9.29;29.24;95147.78;5108759;28;20517;-70
2021/03/09 11:41:24;;;;;;;29.30;16.07;;;;;;;9.56;30.61;95140.06;5109709;28;21026;-69